Time;durP1;ratioP1;P1;durP2;ratioP2;P2;SDS_P1;SDS_P2;PMS_P1;PMS_P2;Temp;Humidity;BMP_temperature;BMP_pressure;BME280_temperature;BME280_humidity;BME280_pressure;Samples;Min_cycle;Max_cycle;Signal;HPM_P1;HPM_P2
2022/02/13 00:01:46;;;;;;;37.08;22.00;;;5.90;93.20;;;;;;5016767;28;20072;-48
2022/02/13 00:04:14;;;;;;;38.95;21.95;;;5.90;93.00;;;;;;5020848;28;20064;-48
2022/02/13 00:06:40;;;;;;;38.40;22.55;;;5.90;93.10;;;;;;5020470;28;20034;-47
2022/02/13 00:09:06;;;;;;;33.38;21.80;;;5.90;93.10;;;;;;5018802;28;20499;-48
2022/02/13 00:11:32;;;;;;;36.83;23.13;;;5.90;93.10;;;;;;5016020;28;20034;-48
2022/02/13 00:13:58;;;;;;;27.85;19.42;;;5.80;93.30;;;;;;5014251;28;20041;-47
2022/02/13 00:16:23;;;;;;;29.00;19.13;;;5.80;93.20;;;;;;5014329;28;20041;-48
2022/02/13 00:18:49;;;;;;;33.72;20.17;;;5.80;93.10;;;;;;5015136;28;20037;-48
2022/02/13 00:21:15;;;;;;;28.08;19.80;;;5.70;93.20;;;;;;5015952;28;20514;-48
2022/02/13 00:23:41;;;;;;;36.63;21.83;;;5.80;93.10;;;;;;5015629;28;20029;-48
2022/02/13 00:26:06;;;;;;;35.88;23.05;;;5.80;93.00;;;;;;4999193;28;20398;-53
2022/02/13 00:28:36;;;;;;;35.90;22.88;;;5.70;93.20;;;;;;5017120;28;20026;-48
2022/02/13 00:31:03;;;;;;;69.03;39.10;;;5.70;93.30;;;;;;5015467;28;20033;-48
2022/02/13 00:33:29;;;;;;;50.30;31.85;;;5.70;93.30;;;;;;5030079;28;20148;-48
2022/02/13 00:35:54;;;;;;;51.60;32.22;;;5.70;93.30;;;;;;5029711;28;20112;-48
2022/02/13 00:38:20;;;;;;;66.30;35.67;;;5.70;93.20;;;;;;5015316;28;20121;-48
2022/02/13 00:40:46;;;;;;;55.97;32.63;;;5.80;93.00;;;;;;5015251;28;20501;-47
2022/02/13 00:43:13;;;;;;;59.60;33.20;;;5.90;93.00;;;;;;5014841;28;20025;-48
2022/02/13 00:45:39;;;;;;;77.13;35.25;;;5.80;93.10;;;;;;5014538;28;20041;-48
2022/02/13 00:48:07;;;;;;;102.45;49.50;;;5.80;93.10;;;;;;4980681;28;20052;-48
2022/02/13 00:50:33;;;;;;;106.22;53.83;;;5.80;93.20;;;;;;5013638;28;20057;-48
2022/02/13 00:52:59;;;;;;;96.88;49.00;;;5.80;93.10;;;;;;5014596;28;20026;-48
2022/02/13 00:55:24;;;;;;;116.03;59.60;;;5.90;93.10;;;;;;5014714;28;20038;-47
2022/02/13 00:57:50;;;;;;;105.93;55.97;;;5.80;93.10;;;;;;5013074;28;20045;-48
2022/02/13 01:00:16;;;;;;;106.97;54.72;;;5.80;93.10;;;;;;5014322;28;20030;-48
2022/02/13 01:02:42;;;;;;;132.60;73.22;;;5.80;93.10;;;;;;5012770;28;20050;-48
2022/02/13 01:05:08;;;;;;;115.05;67.20;;;5.70;93.20;;;;;;5013897;28;20114;-48
2022/02/13 01:07:34;;;;;;;118.30;64.05;;;5.70;93.20;;;;;;5015785;28;20030;-48
2022/02/13 01:10:00;;;;;;;113.13;61.65;;;5.70;93.20;;;;;;5015097;28;20474;-47
2022/02/13 01:12:25;;;;;;;114.15;58.65;;;5.70;93.50;;;;;;5014908;28;20440;-48
2022/02/13 01:14:51;;;;;;;102.57;53.20;;;5.60;93.20;;;;;;5014700;28;20489;-48
2022/02/13 01:17:17;;;;;;;95.18;48.90;;;5.60;93.20;;;;;;5015183;28;20026;-48
2022/02/13 01:19:43;;;;;;;94.60;47.15;;;5.60;93.30;;;;;;5029416;28;20482;-48
2022/02/13 01:22:10;;;;;;;74.30;40.10;;;5.60;93.40;;;;;;5013525;28;20488;-48
2022/02/13 01:24:36;;;;;;;68.20;39.15;;;5.60;93.50;;;;;;5014587;28;20041;-48
2022/02/13 01:27:02;;;;;;;68.95;39.08;;;5.50;93.60;;;;;;5014670;28;20026;-48
2022/02/13 01:29:28;;;;;;;66.95;36.28;;;5.60;93.60;;;;;;5014295;28;20033;-48
2022/02/13 01:31:55;;;;;;;106.55;59.42;;;5.70;93.50;;;;;;4979590;28;20033;-48
2022/02/13 01:34:21;;;;;;;111.60;62.45;;;5.60;93.50;;;;;;5014089;28;20045;-48
2022/02/13 01:36:48;;;;;;;109.47;63.30;;;5.70;93.50;;;;;;5014393;28;20100;-48
2022/02/13 01:39:15;;;;;;;98.85;62.20;;;5.70;93.60;;;;;;5014552;28;20116;-47
2022/02/13 01:41:41;;;;;;;102.13;59.30;;;5.60;93.50;;;;;;5014460;28;20026;-48
2022/02/13 01:44:34;;;;;;;95.20;55.22;;;5.60;93.60;;;;;;5014352;28;20026;-48
2022/02/13 01:47:01;;;;;;;95.95;52.20;;;5.70;93.70;;;;;;5014278;28;20029;-48
2022/02/13 01:49:27;;;;;;;80.20;44.03;;;5.70;93.70;;;;;;5013698;28;20038;-48
2022/02/13 01:51:55;;;;;;;80.88;45.10;;;5.70;93.60;;;;;;4994990;28;20034;-50
2022/02/13 01:54:21;;;;;;;81.05;43.42;;;5.60;93.80;;;;;;5013862;28;20474;-47
2022/02/13 01:56:47;;;;;;;74.07;41.42;;;5.60;93.90;;;;;;5014051;28;20022;-48
2022/02/13 01:59:13;;;;;;;77.18;45.75;;;5.60;94.10;;;;;;5012496;28;20038;-47
2022/02/13 02:01:40;;;;;;;113.22;60.95;;;5.50;94.10;;;;;;5013628;28;20129;-48
2022/02/13 02:04:06;;;;;;;112.15;64.13;;;5.40;94.40;;;;;;5014056;28;20076;-48
2022/02/13 02:06:31;;;;;;;70.95;42.08;;;5.10;94.90;;;;;;4979535;28;20068;-48
2022/02/13 02:08:57;;;;;;;64.68;40.63;;;5.00;94.80;;;;;;5012401;28;20470;-48
2022/02/13 02:11:23;;;;;;;72.38;42.95;;;4.40;95.70;;;;;;5013997;28;20030;-48
2022/02/13 02:13:49;;;;;;;77.03;44.20;;;4.10;96.30;;;;;;5013469;28;20029;-48
2022/02/13 02:16:15;;;;;;;60.83;37.58;;;4.30;96.40;;;;;;5013959;28;20496;-48
2022/02/13 02:18:41;;;;;;;64.95;38.53;;;4.00;96.40;;;;;;5014019;28;20033;-48
2022/02/13 02:21:08;;;;;;;66.50;38.90;;;4.10;97.00;;;;;;5014094;28;20030;-48
2022/02/13 02:23:37;;;;;;;66.50;37.13;;;4.40;96.50;;;;;;5028389;28;20124;-48
2022/02/13 02:26:03;;;;;;;53.00;32.10;;;4.60;96.10;;;;;;5014043;28;20065;-48
2022/02/13 02:28:29;;;;;;;60.47;37.13;;;4.60;96.20;;;;;;5013386;28;20026;-48
2022/02/13 02:30:55;;;;;;;58.78;35.30;;;4.50;96.40;;;;;;5013615;28;20441;-48
2022/02/13 02:33:21;;;;;;;76.88;47.50;;;4.70;96.30;;;;;;5013646;28;20037;-48
2022/02/13 02:35:49;;;;;;;63.92;39.72;;;4.70;96.10;;;;;;5014085;28;20120;-48
2022/02/13 02:38:16;;;;;;;46.58;29.08;;;4.50;96.50;;;;;;5012258;28;20057;-48
2022/02/13 02:40:43;;;;;;;50.17;31.42;;;4.10;97.10;;;;;;5013438;28;20049;-47
2022/02/13 02:43:09;;;;;;;45.75;29.60;;;4.00;97.50;;;;;;5016831;28;20030;-47
2022/02/13 02:45:35;;;;;;;41.75;27.67;;;4.00;97.80;;;;;;5017917;28;20616;-48
2022/02/13 02:48:01;;;;;;;49.80;30.58;;;3.80;98.20;;;;;;5017039;28;20064;-48
2022/02/13 02:50:27;;;;;;;42.45;27.98;;;3.70;98.10;;;;;;5017470;28;20482;-47
2022/02/13 02:52:53;;;;;;;39.13;24.48;;;4.10;97.90;;;;;;5017280;28;20112;-48
2022/02/13 02:55:19;;;;;;;44.10;24.58;;;4.20;97.50;;;;;;5015532;28;20080;-47
2022/02/13 02:57:44;;;;;;;40.78;27.48;;;4.40;97.50;;;;;;5017562;28;20049;-47
2022/02/13 03:00:11;;;;;;;41.50;26.67;;;4.60;97.20;;;;;;4982277;28;20486;-47
2022/02/13 03:02:37;;;;;;;43.58;27.73;;;4.80;96.70;;;;;;4999099;28;20060;-47
2022/02/13 03:05:04;;;;;;;43.35;29.80;;;4.80;96.50;;;;;;5016918;28;20033;-47
2022/02/13 03:07:29;;;;;;;42.08;27.65;;;4.80;96.50;;;;;;5001639;28;20052;-48
2022/02/13 03:09:55;;;;;;;54.90;34.05;;;4.90;96.60;;;;;;5026177;28;20026;-48
2022/02/13 03:12:21;;;;;;;69.35;42.42;;;4.80;96.80;;;;;;5026003;28;20025;-47
2022/02/13 03:14:47;;;;;;;53.30;35.42;;;4.80;96.80;;;;;;4981212;28;21094;-48
2022/02/13 03:17:13;;;;;;;45.58;29.08;;;4.70;96.90;;;;;;5032548;28;20049;-48
2022/02/13 03:19:39;;;;;;;65.63;32.60;;;4.70;97.10;;;;;;5014826;28;20033;-47
2022/02/13 03:22:06;;;;;;;56.70;36.60;;;4.70;97.10;;;;;;4965887;28;20428;-48
2022/02/13 03:24:32;;;;;;;61.58;36.03;;;4.70;97.00;;;;;;5014683;28;20030;-48
2022/02/13 03:26:58;;;;;;;79.70;47.42;;;4.60;97.00;;;;;;5014836;28;20083;-48
2022/02/13 03:29:24;;;;;;;54.42;31.70;;;4.60;97.10;;;;;;5008466;28;20048;-48
2022/02/13 03:31:50;;;;;;;45.58;27.80;;;4.20;97.00;;;;;;5014867;28;20428;-50
2022/02/13 03:34:16;;;;;;;41.70;27.92;;;4.10;97.50;;;;;;5014032;28;20038;-48
2022/02/13 03:36:42;;;;;;;44.38;28.27;;;4.00;98.10;;;;;;4998210;28;20064;-48
2022/02/13 03:39:08;;;;;;;41.30;26.73;;;3.70;98.50;;;;;;4998632;28;20057;-47
2022/02/13 03:41:34;;;;;;;39.03;24.23;;;3.60;99.30;;;;;;4981593;28;20123;-48
2022/02/13 03:44:00;;;;;;;37.78;24.35;;;3.40;99.80;;;;;;5014102;28;20034;-48
2022/02/13 03:46:26;;;;;;;35.80;23.33;;;;;;;;;;4994000;28;20041;-48
2022/02/13 03:48:52;;;;;;;37.83;23.85;;;3.50;99.90;;;;;;5016815;28;20033;-48
2022/02/13 03:51:17;;;;;;;35.33;23.45;;;3.50;99.90;;;;;;5016514;28;20076;-47
2022/02/13 03:53:43;;;;;;;36.85;23.88;;;3.70;99.90;;;;;;4978572;28;20162;-48
2022/02/13 03:56:09;;;;;;;35.78;23.02;;;3.80;99.90;;;;;;5009426;28;20473;-47
2022/02/13 03:58:35;;;;;;;39.28;23.40;;;3.80;99.90;;;;;;5016239;28;20037;-47
2022/02/13 04:01:01;;;;;;;40.92;25.85;;;3.60;99.90;;;;;;5031065;28;20030;-47
2022/02/13 04:03:27;;;;;;;45.00;26.13;;;3.60;99.90;;;;;;5030867;28;20042;-47
2022/02/13 04:05:55;;;;;;;38.83;24.67;;;3.70;99.90;;;;;;5031082;28;20088;-48
2022/02/13 04:08:22;;;;;;;33.95;22.83;;;3.50;99.90;;;;;;5015762;28;20419;-48
2022/02/13 04:10:48;;;;;;;29.63;21.33;;;3.50;99.90;;;;;;5016277;28;20054;-47
2022/02/13 04:13:13;;;;;;;34.20;21.30;;;3.30;99.90;;;;;;4997759;28;20068;-48
2022/02/13 04:15:39;;;;;;;31.08;22.17;;;3.30;99.90;;;;;;5016216;28;20113;-47
2022/02/13 04:18:18;;;;;;;33.85;22.20;;;3.50;99.90;;;;;;4981435;28;20460;-48
2022/02/13 04:20:44;;;;;;;32.35;22.38;;;3.80;99.90;;;;;;5015403;28;20040;-48
2022/02/13 04:23:10;;;;;;;37.33;24.20;;;4.00;99.90;;;;;;5015497;28;20053;-49
2022/02/13 04:25:37;;;;;;;36.47;24.60;;;4.20;99.90;;;;;;5014096;28;20061;-48
2022/02/13 04:28:04;;;;;;;42.97;28.63;;;4.40;99.90;;;;;;5015838;28;20509;-47
2022/02/13 04:30:30;;;;;;;36.60;25.35;;;4.30;99.90;;;;;;5015106;28;20030;-48
2022/02/13 04:32:56;;;;;;;37.58;24.02;;;4.00;99.90;;;;;;5015003;28;20026;-47
2022/02/13 04:35:25;;;;;;;35.63;24.05;;;3.90;99.90;;;;;;5013808;28;20038;-47
2022/02/13 04:37:56;;;;;;;37.67;24.73;;;3.80;99.90;;;;;;5015344;28;20037;-47
2022/02/13 04:40:22;;;;;;;39.75;24.98;;;3.80;99.90;;;;;;5015582;28;20025;-48
2022/02/13 04:42:48;;;;;;;32.80;21.65;;;3.60;99.90;;;;;;5016023;28;20470;-48
2022/02/13 04:45:14;;;;;;;35.28;23.83;;;3.60;99.90;;;;;;5017233;28;20038;-48
2022/02/13 04:47:40;;;;;;;33.42;22.23;;;3.50;99.90;;;;;;5014905;28;20164;-48
2022/02/13 04:50:07;;;;;;;40.47;22.77;;;3.50;99.90;;;;;;5015404;28;20381;-48
2022/02/13 04:52:33;;;;;;;35.15;23.20;;;3.20;99.90;;;;;;4997046;28;20034;-48
2022/02/13 04:54:59;;;;;;;33.78;23.30;;;3.00;99.90;;;;;;5014897;28;20070;-47
2022/02/13 04:57:27;;;;;;;33.75;22.85;;;;;;;;;;5029864;28;20073;-48
2022/02/13 04:59:53;;;;;;;33.55;22.98;;;2.90;99.90;;;;;;5015228;28;20033;-48
2022/02/13 05:02:19;;;;;;;33.55;21.75;;;3.10;99.90;;;;;;5014818;28;20062;-48
2022/02/13 05:04:45;;;;;;;32.03;22.02;;;3.50;99.90;;;;;;5013144;28;20092;-48
2022/02/13 05:07:11;;;;;;;33.03;23.05;;;3.40;99.90;;;;;;5014973;28;20026;-47
2022/02/13 05:09:37;;;;;;;45.60;33.38;;;3.50;99.90;;;;;;5029531;28;20038;-48
2022/02/13 05:12:03;;;;;;;33.50;21.20;;;3.70;99.90;;;;;;5014632;28;20026;-48
2022/02/13 05:14:29;;;;;;;28.77;20.10;;;3.90;99.90;;;;;;5029387;28;20100;-47
2022/02/13 05:16:55;;;;;;;29.25;20.73;;;3.90;99.90;;;;;;5013090;28;20073;-48
2022/02/13 05:19:21;;;;;;;40.80;25.50;;;4.00;99.90;;;;;;5012852;28;20041;-48
2022/02/13 05:21:46;;;;;;;38.47;24.42;;;4.10;99.90;;;;;;5014654;28;20037;-47
2022/02/13 05:24:12;;;;;;;32.35;20.90;;;4.20;99.90;;;;;;5014310;28;20060;-48
2022/02/13 05:26:38;;;;;;;26.88;18.50;;;4.30;99.90;;;;;;5012759;28;20050;-48
2022/02/13 05:29:04;;;;;;;25.55;18.23;;;4.30;99.90;;;;;;5014973;28;20034;-48
2022/02/13 05:31:30;;;;;;;28.67;19.92;;;4.30;99.90;;;;;;5014623;28;20072;-48
2022/02/13 05:33:59;;;;;;;28.55;20.20;;;4.20;99.90;;;;;;5012485;28;20204;-48
2022/02/13 05:36:26;;;;;;;31.27;21.05;;;4.00;99.90;;;;;;5014406;28;20104;-48
2022/02/13 05:38:52;;;;;;;30.80;20.75;;;4.00;99.90;;;;;;5014141;28;20056;-48
2022/02/13 05:41:18;;;;;;;31.70;21.95;;;3.80;99.90;;;;;;5014524;28;20153;-48
2022/02/13 05:43:43;;;;;;;29.30;21.17;;;3.60;99.90;;;;;;5013133;28;20038;-48
2022/02/13 05:46:09;;;;;;;32.55;22.83;;;3.40;99.90;;;;;;5014448;28;20026;-48
2022/02/13 05:48:36;;;;;;;32.45;21.60;;;3.20;99.90;;;;;;5014122;28;20061;-48
2022/02/13 05:51:02;;;;;;;33.00;21.55;;;3.00;99.90;;;;;;5028829;28;20192;-48
2022/02/13 05:53:28;;;;;;;31.02;21.45;;;3.00;99.90;;;;;;5013918;28;20130;-47
2022/02/13 05:55:54;;;;;;;31.90;21.73;;;2.90;99.90;;;;;;5029094;28;20458;-48
2022/02/13 05:58:20;;;;;;;31.80;20.23;;;3.00;99.90;;;;;;5019024;28;20026;-47
2022/02/13 06:00:46;;;;;;;31.17;20.10;;;3.00;99.90;;;;;;5013765;28;20030;-48
2022/02/13 06:03:12;;;;;;;28.92;20.13;;;3.10;99.90;;;;;;5015196;28;20108;-48
2022/02/13 06:05:38;;;;;;;30.35;19.83;;;3.20;99.90;;;;;;5007642;28;20501;-48
2022/02/13 06:08:04;;;;;;;27.60;18.63;;;3.50;99.90;;;;;;5026473;28;20045;-49
2022/02/13 06:10:30;;;;;;;27.15;17.08;;;3.90;99.90;;;;;;4956959;28;20061;-48
2022/02/13 06:12:56;;;;;;;26.65;18.05;;;4.10;99.90;;;;;;5009477;28;20485;-49
2022/02/13 06:15:21;;;;;;;25.80;17.73;;;4.10;99.90;;;;;;5008924;28;20091;-48
2022/02/13 06:17:47;;;;;;;30.63;20.83;;;4.00;99.90;;;;;;5008824;28;20501;-48
2022/02/13 06:20:13;;;;;;;32.97;22.67;;;4.50;99.90;;;;;;5010416;28;20046;-48
2022/02/13 06:22:39;;;;;;;37.47;23.88;;;5.60;99.90;;;;;;5027005;28;20046;-48
2022/02/13 06:25:06;;;;;;;31.55;23.20;;;6.50;99.90;;;;;;5005394;28;20029;-48
2022/02/13 06:27:32;;;;;;;31.10;21.65;;;7.50;99.90;;;;;;5011874;28;20066;-48
2022/02/13 06:29:57;;;;;;;28.52;21.20;;;8.70;99.10;;;;;;5017226;28;20068;-48
2022/02/13 06:32:23;;;;;;;23.00;16.88;;;9.80;96.80;;;;;;5019780;28;20055;-49
2022/02/13 06:34:49;;;;;;;24.15;16.90;;;10.10;93.80;;;;;;5031864;28;20091;-51
2022/02/13 06:37:15;;;;;;;24.80;17.67;;;10.80;93.80;;;;;;5021301;28;20029;-51
2022/02/13 06:39:41;;;;;;;21.05;15.75;;;11.60;92.70;;;;;;5020721;28;20473;-51
2022/02/13 06:42:06;;;;;;;19.45;15.07;;;12.10;91.60;;;;;;5023926;28;20037;-51
2022/02/13 06:44:33;;;;;;;23.38;14.65;;;12.50;93.90;;;;;;5017597;28;20030;-52
2022/02/13 06:46:59;;;;;;;17.52;13.30;;;13.40;90.10;;;;;;5012423;28;20076;-53
2022/02/13 06:49:25;;;;;;;20.58;15.38;;;13.70;88.30;;;;;;5005516;28;20041;-52
2022/02/13 06:51:51;;;;;;;23.30;16.65;;;12.40;86.90;;;;;;5016133;28;20108;-59
2022/02/13 06:54:17;;;;;;;25.10;18.08;;;12.50;86.60;;;;;;5006678;28;20141;-54
2022/02/13 06:56:42;;;;;;;28.23;20.58;;;12.80;87.00;;;;;;5009016;28;20529;-54
2022/02/13 06:59:09;;;;;;;27.48;20.65;;;;;;;;;;5008073;28;20072;-54
2022/02/13 07:01:34;;;;;;;34.25;22.98;;;14.50;85.30;;;;;;5028378;28;20126;-54
2022/02/13 07:04:00;;;;;;;38.47;24.70;;;14.30;84.10;;;;;;5027400;28;20042;-54
2022/02/13 07:06:26;;;;;;;32.83;22.75;;;14.90;83.30;;;;;;5028391;28;20073;-54
2022/02/13 07:08:52;;;;;;;32.25;24.35;;;15.30;82.30;;;;;;5025739;28;20595;-54
2022/02/13 07:11:18;;;;;;;80.10;43.08;;;;;;;;;;5027667;28;20505;-54
2022/02/13 07:13:44;;;;;;;48.08;28.80;;;;;;;;;;4996362;28;20362;-54
2022/02/13 07:16:10;;;;;;;30.92;22.48;;;15.00;89.00;;;;;;5026301;28;20116;-54
2022/02/13 07:18:35;;;;;;;31.88;21.52;;;13.80;82.20;;;;;;5028365;28;20592;-54
2022/02/13 07:21:01;;;;;;;36.70;24.80;;;12.50;83.20;;;;;;5026906;28;20041;-54
2022/02/13 07:23:27;;;;;;;32.10;22.40;;;12.10;85.50;;;;;;4994719;28;20037;-54
2022/02/13 07:25:53;;;;;;;31.38;21.55;;;12.70;84.50;;;;;;4950903;28;20075;-53
2022/02/13 07:31:03;;;;;;;29.58;23.85;;;;;;;;;;5031743;28;20063;-54
2022/02/13 07:33:30;;;;;;;30.05;22.38;;;;;;;;;;5013798;28;20046;-54
2022/02/13 07:35:56;;;;;;;32.05;24.17;;;;;;;;;;5012294;28;20354;-54
2022/02/13 07:38:21;;;;;;;31.55;23.90;;;14.60;99.90;;;;;;5012020;28;20517;-54
2022/02/13 07:40:47;;;;;;;27.67;20.73;;;15.00;99.90;;;;;;5014278;28;20184;-54
2022/02/13 07:43:15;;;;;;;27.70;21.30;;;;;;;;;;5015854;28;20382;-54
2022/02/13 07:45:41;;;;;;;33.95;22.40;;;14.10;80.90;;;;;;5012653;28;20041;-54
2022/02/13 07:48:09;;;;;;;31.42;21.98;;;13.00;83.30;;;;;;5011018;28;20034;-53
2022/02/13 07:50:35;;;;;;;31.80;24.98;;;12.90;85.50;;;;;;5015080;28;20029;-54
2022/02/13 07:53:01;;;;;;;33.38;25.23;;;12.20;84.20;;;;;;5011066;28;20040;-54
2022/02/13 07:55:28;;;;;;;36.00;27.08;;;11.80;85.20;;;;;;5011571;28;20112;-54
2022/02/13 07:57:54;;;;;;;39.15;27.40;;;11.50;86.50;;;;;;5011893;28;20553;-53
2022/02/13 08:00:20;;;;;;;36.05;27.27;;;12.70;87.50;;;;;;5012806;28;20109;-53
2022/02/13 08:02:46;;;;;;;35.72;26.77;;;13.70;86.80;;;;;;5011753;28;20421;-54
2022/02/13 08:05:12;;;;;;;36.05;26.80;;;;;;;;;;5013617;28;20033;-54
2022/02/13 08:07:45;;;;;;;33.42;23.95;;;16.50;97.20;;;;;;5013509;28;20034;-53
2022/02/13 08:10:11;;;;;;;29.50;25.58;;;;;;;;;;5010239;28;20058;-53
2022/02/13 08:12:37;;;;;;;35.28;24.95;;;16.60;81.40;;;;;;5015496;28;20022;-54
2022/02/13 08:15:03;;;;;;;32.70;25.20;;;14.40;80.30;;;;;;5009336;28;20064;-53
2022/02/13 08:17:29;;;;;;;36.90;27.75;;;14.90;81.70;;;;;;4960332;28;20135;-53
2022/02/13 08:19:55;;;;;;;41.10;32.15;;;15.20;82.50;;;;;;5011372;28;20037;-54
2022/02/13 08:22:21;;;;;;;37.28;28.48;;;;;;;;;;5010153;28;20522;-54
2022/02/13 08:24:46;;;;;;;33.22;26.48;;;17.00;79.90;;;;;;5011209;28;20406;-54
2022/02/13 08:27:12;;;;;;;31.08;25.30;;;16.70;79.90;;;;;;5012965;28;20030;-54
2022/02/13 08:29:38;;;;;;;32.90;25.65;;;16.60;79.20;;;;;;5013430;28;20033;-54
2022/02/13 08:32:04;;;;;;;32.20;27.02;;;16.10;78.70;;;;;;5012346;28;20478;-53
2022/02/13 08:34:30;;;;;;;33.72;25.98;;;15.60;86.30;;;;;;4963618;28;20054;-54
2022/02/13 08:36:56;;;;;;;28.25;25.15;;;15.30;96.60;;;;;;5026363;28;20053;-53
2022/02/13 08:39:21;;;;;;;28.10;24.88;;;15.80;98.00;;;;;;4975604;28;20042;-54
2022/02/13 08:41:47;;;;;;;28.80;24.02;;;16.70;95.00;;;;;;5014871;28;20030;-54
2022/02/13 08:44:13;;;;;;;31.77;23.52;;;17.20;79.80;;;;;;5009032;28;20065;-54
2022/02/13 08:46:39;;;;;;;32.95;25.75;;;;;;;;;;5012336;28;20083;-53
2022/02/13 08:49:05;;;;;;;59.65;41.08;;;18.30;76.60;;;;;;5012020;28;20054;-54
2022/02/13 08:51:31;;;;;;;39.25;28.48;;;;;;;;;;5029125;28;20096;-52
2022/02/13 08:53:57;;;;;;;30.85;24.77;;;18.70;75.20;;;;;;5012155;28;20045;-51
2022/02/13 08:56:22;;;;;;;28.92;23.85;;;18.70;76.60;;;;;;5013165;28;20030;-51
2022/02/13 08:58:52;;;;;;;31.25;25.58;;;19.30;75.90;;;;;;5004393;28;20485;-52
2022/02/13 09:01:19;;;;;;;28.83;24.35;;;19.70;75.40;;;;;;5012681;28;20034;-51
2022/02/13 09:03:45;;;;;;;29.30;23.83;;;19.40;74.70;;;;;;5008376;28;20112;-51
2022/02/13 09:06:10;;;;;;;31.48;24.45;;;19.40;74.50;;;;;;5010128;28;20481;-51
2022/02/13 09:08:36;;;;;;;29.35;25.08;;;19.20;75.10;;;;;;5012157;28;20363;-51
2022/02/13 09:11:02;;;;;;;30.40;24.25;;;20.00;74.60;;;;;;5008736;28;20113;-51
2022/02/13 09:13:28;;;;;;;30.23;24.90;;;19.10;74.60;;;;;;5008507;28;20179;-52
2022/02/13 09:15:53;;;;;;;30.90;24.35;;;19.50;75.00;;;;;;5019430;28;20038;-54
2022/02/13 09:18:20;;;;;;;26.33;23.55;;;;;;;;;;4990291;28;20086;-46
2022/02/13 09:20:45;;;;;;;28.20;24.55;;;20.90;73.10;;;;;;5010531;28;20034;-49
2022/02/13 09:23:17;;;;;;;26.85;23.45;;;21.40;73.40;;;;;;5009298;28;20504;-53
2022/02/13 09:25:44;;;;;;;25.95;22.95;;;21.50;72.20;;;;;;5007944;28;20026;-47
2022/02/13 09:28:11;;;;;;;28.63;21.33;;;;;;;;;;5009624;28;20076;-48
2022/02/13 09:30:37;;;;;;;24.15;20.40;;;22.00;70.20;;;;;;5008557;28;20034;-49
2022/02/13 09:33:03;;;;;;;24.08;20.60;;;20.70;70.70;;;;;;5010629;28;20045;-50
2022/02/13 09:35:29;;;;;;;22.90;19.25;;;19.40;71.20;;;;;;4958821;28;20046;-48
2022/02/13 09:37:56;;;;;;;24.38;19.73;;;19.10;72.40;;;;;;4981002;28;20125;-48
2022/02/13 09:40:23;;;;;;;26.42;18.67;;;18.30;73.30;;;;;;5007794;28;20412;-48
2022/02/13 09:42:49;;;;;;;23.38;20.88;;;16.60;74.50;;;;;;5013843;28;20049;-48
2022/02/13 09:45:15;;;;;;;25.13;21.00;;;16.10;76.30;;;;;;5005667;28;21567;-49
2022/02/13 09:47:41;;;;;;;24.92;21.90;;;17.70;76.00;;;;;;5017953;28;20021;-50
2022/02/13 09:50:08;;;;;;;24.38;21.17;;;19.10;75.40;;;;;;5016653;28;20101;-50
2022/02/13 09:52:34;;;;;;;31.30;21.67;;;18.50;73.40;;;;;;5019106;28;20497;-50
2022/02/13 09:55:00;;;;;;;30.23;22.83;;;18.40;72.60;;;;;;5022231;28;20049;-46
2022/02/13 10:00:10;;;;;;;19.80;17.23;;;18.10;73.20;;;;;;5025405;28;20079;-45
2022/02/13 10:02:38;;;;;;;19.73;15.05;;;15.80;75.70;;;;;;4984676;28;20050;-49
2022/02/13 10:05:07;;;;;;;24.75;19.90;;;13.80;78.60;;;;;;5009382;28;20072;-47
2022/02/13 10:07:34;;;;;;;22.88;18.00;;;13.40;99.60;;;;;;5007968;28;20662;-48
2022/02/13 10:10:02;;;;;;;25.63;18.67;;;13.10;81.80;;;;;;5014156;28;20486;-47
2022/02/13 10:12:41;;;;;;;21.63;17.42;;;13.20;82.30;;;;;;5015628;28;20104;-46
2022/02/13 10:15:22;;;;;;;23.33;18.83;;;12.50;84.10;;;;;;5021853;28;20069;-53
2022/02/13 10:17:58;;;;;;;24.88;21.27;;;12.60;83.50;;;;;;5020881;28;20026;-52
2022/02/13 10:20:41;;;;;;;25.83;20.15;;;13.10;84.30;;;;;;5029416;28;20038;-54
2022/02/13 10:23:12;;;;;;;23.05;18.85;;;12.40;84.40;;;;;;4984324;28;20041;-54
2022/02/13 10:25:39;;;;;;;16.67;14.80;;;12.40;86.40;;;;;;5010497;28;20058;-54
2022/02/13 10:28:12;;;;;;;21.63;16.73;;;;;;;;;;5005059;28;20080;-54
2022/02/13 10:30:45;;;;;;;21.77;17.38;;;13.10;84.30;;;;;;5022729;28;20046;-52
2022/02/13 10:33:24;;;;;;;25.60;19.35;;;13.80;83.90;;;;;;5006910;28;20120;-55
2022/02/13 10:36:02;;;;;;;22.73;20.25;;;14.00;83.80;;;;;;5010960;28;20037;-56
2022/02/13 10:38:33;;;;;;;24.60;21.70;;;14.10;83.70;;;;;;5006515;28;20042;-55
2022/02/13 10:41:27;;;;;;;21.75;19.50;;;15.20;82.40;;;;;;5007234;28;20029;-49
2022/02/13 10:44:06;;;;;;;22.48;20.27;;;15.70;97.00;;;;;;5006012;28;20504;-55
2022/02/13 10:46:37;;;;;;;25.92;23.52;;;15.60;80.20;;;;;;5014907;28;20038;-51
2022/02/13 10:49:04;;;;;;;19.07;17.20;;;15.10;81.20;;;;;;5009514;28;20027;-53
2022/02/13 10:51:32;;;;;;;21.88;17.25;;;15.60;79.90;;;;;;5007898;28;20052;-54
2022/02/13 10:53:58;;;;;;;19.70;16.63;;;16.30;81.20;;;;;;5008597;28;20056;-53
2022/02/13 10:56:25;;;;;;;15.85;13.93;;;14.90;79.90;;;;;;5009932;28;20109;-54
2022/02/13 10:58:55;;;;;;;13.60;12.38;;;14.50;81.30;;;;;;5011243;28;20034;-54
2022/02/13 11:01:23;;;;;;;16.30;14.55;;;14.20;80.20;;;;;;5009424;28;20061;-56
2022/02/13 11:03:51;;;;;;;15.82;13.85;;;14.40;81.00;;;;;;5025772;28;20478;-53
2022/02/13 11:06:17;;;;;;;19.15;14.57;;;14.70;80.60;;;;;;5014440;28;20060;-48
2022/02/13 11:08:51;;;;;;;16.52;14.77;;;14.20;81.60;;;;;;5014776;28;20060;-56
2022/02/13 11:11:18;;;;;;;16.70;14.90;;;15.80;79.90;;;;;;5013986;28;20066;-54
2022/02/13 11:13:45;;;;;;;16.77;14.73;;;16.70;79.30;;;;;;5014932;28;20485;-52
2022/02/13 11:16:30;;;;;;;16.92;13.95;;;16.60;79.00;;;;;;5014557;28;20021;-50
2022/02/13 11:18:58;;;;;;;17.10;14.15;;;16.30;78.20;;;;;;5018082;28;20381;-48
2022/02/13 11:21:29;;;;;;;17.02;13.25;;;16.70;78.40;;;;;;5024171;28;20030;-47
2022/02/13 11:23:56;;;;;;;15.27;12.98;;;15.20;78.40;;;;;;5019521;28;20091;-48
2022/02/13 11:26:36;;;;;;;16.33;12.48;;;14.70;79.50;;;;;;5024842;28;20042;-50
2022/02/13 11:29:03;;;;;;;15.68;13.88;;;14.20;80.70;;;;;;5027117;28;20125;-48
2022/02/13 11:31:40;;;;;;;19.63;13.98;;;14.30;80.90;;;;;;5017614;28;20073;-47
2022/02/13 11:34:08;;;;;;;18.17;13.02;;;13.50;82.00;;;;;;5026295;28;20393;-47
2022/02/13 11:36:57;;;;;;;16.30;13.50;;;13.40;83.40;;;;;;5020571;28;20022;-47
2022/02/13 11:39:45;;;;;;;16.58;13.85;;;13.80;83.50;;;;;;5019209;28;20025;-47
2022/02/13 11:42:19;;;;;;;18.35;13.93;;;14.30;83.00;;;;;;5021320;28;20049;-49
2022/02/13 11:44:48;;;;;;;15.68;13.05;;;15.00;81.10;;;;;;5011678;28;20038;-47
2022/02/13 11:47:19;;;;;;;14.77;11.20;;;14.50;81.70;;;;;;5023753;28;20024;-49
2022/02/13 11:50:03;;;;;;;15.75;11.98;;;14.10;81.40;;;;;;5022460;28;20038;-47
2022/02/13 11:52:30;;;;;;;16.15;11.70;;;14.20;81.00;;;;;;5022634;28;20025;-47
2022/02/13 11:54:57;;;;;;;16.25;12.07;;;13.60;82.00;;;;;;5021491;28;20048;-47
2022/02/13 11:57:29;;;;;;;15.65;10.20;;;13.30;82.70;;;;;;5025458;28;20018;-48
2022/02/13 11:59:55;;;;;;;18.77;13.30;;;12.80;83.80;;;;;;5014225;28;20382;-47
2022/02/13 12:02:48;;;;;;;17.38;12.27;;;12.60;84.10;;;;;;5025225;28;20046;-47
2022/02/13 12:05:16;;;;;;;14.98;11.65;;;12.70;84.10;;;;;;5011189;28;20037;-49
2022/02/13 12:07:44;;;;;;;15.82;12.68;;;12.80;83.60;;;;;;5009442;28;20120;-49
2022/02/13 12:10:12;;;;;;;13.70;10.23;;;13.30;85.30;;;;;;5025481;28;20095;-50
2022/02/13 12:12:41;;;;;;;13.55;11.93;;;13.10;82.30;;;;;;5025346;28;20678;-50
2022/02/13 12:15:08;;;;;;;14.55;10.75;;;13.40;83.50;;;;;;5024205;28;20098;-50
2022/02/13 12:17:34;;;;;;;13.63;11.35;;;13.20;82.10;;;;;;5038357;28;20096;-50
2022/02/13 12:20:09;;;;;;;15.85;12.65;;;13.30;81.70;;;;;;5014526;28;20030;-49
2022/02/13 12:22:35;;;;;;;18.55;12.48;;;14.00;81.50;;;;;;5032892;28;20037;-51
2022/02/13 12:25:06;;;;;;;13.60;10.77;;;13.80;82.00;;;;;;5018995;28;20069;-51
2022/02/13 12:27:32;;;;;;;16.58;11.80;;;13.60;81.00;;;;;;4968697;28;20042;-51
2022/02/13 12:30:00;;;;;;;13.80;12.07;;;13.70;81.00;;;;;;5019511;28;20029;-51
2022/02/13 12:32:29;;;;;;;13.00;8.70;;;13.80;81.40;;;;;;5019896;28;20026;-50
2022/02/13 12:35:00;;;;;;;19.45;12.32;;;12.70;82.80;;;;;;5024269;28;20052;-51
2022/02/13 12:37:34;;;;;;;15.40;13.32;;;13.00;83.40;;;;;;5015513;28;20144;-51
2022/02/13 12:40:00;;;;;;;16.33;11.02;;;13.70;83.40;;;;;;5011555;28;20065;-52
2022/02/13 12:42:31;;;;;;;20.08;12.25;;;13.70;80.60;;;;;;5020864;28;20381;-51
2022/02/13 12:45:04;;;;;;;13.20;10.27;;;14.50;80.60;;;;;;5021197;28;20061;-52